Time;durP1;ratioP1;P1;durP2;ratioP2;P2;SDS_P1;SDS_P2;PMS_P1;PMS_P2;Temp;Humidity;BMP_temperature;BMP_pressure;BME280_temperature;BME280_humidity;BME280_pressure;Samples;Min_cycle;Max_cycle;Signal;HPM_P1;HPM_P2
2021/03/29 00:00:10;;;;;;;26.13;18.48;;;14.70;62.10;;;;;;5035744;28;20032;-70
2021/03/29 00:02:36;;;;;;;23.70;17.83;;;14.70;62.30;;;;;;5035653;28;20096;-70
2021/03/29 00:05:01;;;;;;;23.92;17.48;;;14.70;62.90;;;;;;5034787;28;20430;-68
2021/03/29 00:07:29;;;;;;;29.33;16.90;;;14.70;62.40;;;;;;5035622;28;20044;-68
2021/03/29 00:09:56;;;;;;;23.92;17.35;;;14.70;62.50;;;;;;5035549;28;20429;-68
2021/03/29 00:12:24;;;;;;;24.40;17.17;;;14.80;62.60;;;;;;5035400;28;20174;-69
2021/03/29 00:14:51;;;;;;;25.25;17.35;;;14.80;62.10;;;;;;5035074;28;20046;-67
2021/03/29 00:17:17;;;;;;;25.70;16.30;;;14.80;62.10;;;;;;5035357;28;20065;-70
2021/03/29 00:19:44;;;;;;;20.52;16.88;;;14.70;62.10;;;;;;5035418;28;20467;-70
2021/03/29 00:22:09;;;;;;;28.25;18.23;;;14.70;61.90;;;;;;5035075;28;20021;-69
2021/03/29 00:24:37;;;;;;;20.67;17.25;;;14.60;62.00;;;;;;5035365;28;20045;-71
2021/03/29 00:27:03;;;;;;;23.38;17.52;;;14.60;62.20;;;;;;5035279;28;20028;-69
2021/03/29 00:29:29;;;;;;;24.80;17.45;;;14.60;62.20;;;;;;5035285;28;20045;-69
2021/03/29 00:31:56;;;;;;;21.90;17.02;;;14.60;62.70;;;;;;5035196;28;20064;-69
2021/03/29 00:34:22;;;;;;;22.45;16.77;;;14.50;62.30;;;;;;5035078;28;20021;-68
2021/03/29 00:36:50;;;;;;;22.80;16.90;;;14.50;62.50;;;;;;5033581;28;20030;-67
2021/03/29 00:39:17;;;;;;;25.27;16.85;;;14.50;62.50;;;;;;5035153;28;20113;-69
2021/03/29 00:41:44;;;;;;;21.20;16.67;;;14.60;62.40;;;;;;5035042;28;20449;-69
2021/03/29 00:44:10;;;;;;;25.15;17.63;;;14.60;62.30;;;;;;5033729;28;20056;-68
2021/03/29 00:46:40;;;;;;;24.77;17.92;;;14.70;62.40;;;;;;5034929;28;20554;-68
2021/03/29 00:49:06;;;;;;;23.08;17.67;;;14.70;62.10;;;;;;5034916;28;20022;-69
2021/03/29 00:51:35;;;;;;;23.80;17.90;;;14.70;62.20;;;;;;5034458;28;20036;-68
2021/03/29 00:54:03;;;;;;;25.63;18.48;;;14.80;62.10;;;;;;5033487;28;20389;-68
2021/03/29 00:56:30;;;;;;;25.00;17.45;;;14.80;62.30;;;;;;5034551;28;20026;-68
2021/03/29 00:58:57;;;;;;;25.50;18.58;;;14.80;62.40;;;;;;5034627;28;20478;-67
2021/03/29 01:01:26;;;;;;;20.08;16.80;;;14.70;62.40;;;;;;5034369;28;20082;-68
2021/03/29 01:03:59;;;;;;;23.05;17.40;;;14.60;62.10;;;;;;5034630;28;20438;-69
2021/03/29 01:06:28;;;;;;;27.35;17.80;;;14.40;62.40;;;;;;5034597;28;20037;-70
2021/03/29 01:09:00;;;;;;;25.80;17.50;;;14.30;63.10;;;;;;5034487;28;20087;-68
2021/03/29 01:11:28;;;;;;;24.00;17.25;;;14.20;63.00;;;;;;5034328;28;20383;-67
2021/03/29 01:14:18;;;;;;;21.35;16.85;;;14.20;63.30;;;;;;5032844;28;20156;-69
2021/03/29 01:16:52;;;;;;;24.55;17.48;;;14.30;63.20;;;;;;5032826;28;20053;-68
2021/03/29 01:19:41;;;;;;;22.75;16.80;;;14.30;63.20;;;;;;5034273;28;20040;-68
2021/03/29 01:22:07;;;;;;;25.40;17.73;;;14.40;62.80;;;;;;5034237;28;20505;-69
2021/03/29 01:24:43;;;;;;;22.88;17.08;;;14.40;62.80;;;;;;5034223;28;20495;-67
2021/03/29 01:27:09;;;;;;;22.98;16.13;;;14.40;62.90;;;;;;5034181;28;20052;-70
2021/03/29 01:29:36;;;;;;;24.23;15.43;;;14.30;62.70;;;;;;5034190;28;20053;-67
2021/03/29 01:32:05;;;;;;;22.35;17.02;;;14.40;62.90;;;;;;5034012;28;20025;-68
2021/03/29 01:34:47;;;;;;;26.73;16.50;;;14.30;63.10;;;;;;5034001;28;20030;-69
2021/03/29 01:37:13;;;;;;;25.40;17.63;;;14.30;63.20;;;;;;5033601;28;20044;-69
2021/03/29 01:39:41;;;;;;;19.55;16.25;;;14.20;63.00;;;;;;5032766;28;20022;-67
2021/03/29 01:42:08;;;;;;;29.77;16.67;;;14.20;63.20;;;;;;5033678;28;20076;-67
2021/03/29 01:44:34;;;;;;;24.05;16.92;;;14.20;63.40;;;;;;5033847;28;20060;-67
2021/03/29 01:47:01;;;;;;;24.92;17.30;;;14.10;63.40;;;;;;5033815;28;20036;-69
2021/03/29 01:49:27;;;;;;;24.85;16.77;;;14.10;63.40;;;;;;5033536;28;20040;-67
2021/03/29 01:51:54;;;;;;;23.77;17.08;;;14.10;63.40;;;;;;5033525;28;20429;-67
2021/03/29 01:54:20;;;;;;;21.77;16.70;;;14.00;63.40;;;;;;5033630;28;20137;-67
2021/03/29 01:56:46;;;;;;;22.80;17.73;;;14.10;63.70;;;;;;5033449;28;20046;-68
2021/03/29 01:59:12;;;;;;;28.75;19.10;;;14.10;63.60;;;;;;5033588;28;20529;-68
2021/03/29 02:01:38;;;;;;;26.85;17.67;;;14.00;63.50;;;;;;5032006;28;20033;-68
2021/03/29 02:04:06;;;;;;;24.67;17.75;;;13.90;63.90;;;;;;5033515;28;20018;-68
2021/03/29 02:06:32;;;;;;;29.25;17.92;;;14.00;63.90;;;;;;5032198;28;20033;-68
2021/03/29 02:09:00;;;;;;;24.10;18.33;;;14.00;63.40;;;;;;5033428;28;20100;-72
2021/03/29 02:11:27;;;;;;;23.70;17.67;;;13.80;63.30;;;;;;5033413;28;20033;-67
2021/03/29 02:13:55;;;;;;;21.40;17.25;;;13.80;63.60;;;;;;5033279;28;20022;-68
2021/03/29 02:16:21;;;;;;;26.73;19.10;;;13.80;63.70;;;;;;5032884;28;20486;-70
2021/03/29 02:18:52;;;;;;;24.75;18.08;;;13.80;63.60;;;;;;5033423;28;20431;-68
2021/03/29 02:21:28;;;;;;;25.58;17.90;;;13.70;63.60;;;;;;5033326;28;20017;-69
2021/03/29 02:23:57;;;;;;;25.42;18.30;;;13.80;64.10;;;;;;5033305;28;20426;-68
2021/03/29 02:26:29;;;;;;;25.40;18.42;;;13.80;63.60;;;;;;5033369;28;20021;-68
2021/03/29 02:28:56;;;;;;;28.55;17.83;;;13.80;63.80;;;;;;5032880;28;20029;-68
2021/03/29 02:31:27;;;;;;;25.65;17.50;;;13.80;63.30;;;;;;5033061;28;20075;-68
2021/03/29 02:33:55;;;;;;;29.08;18.25;;;13.70;63.50;;;;;;5033243;28;20512;-68
2021/03/29 02:36:21;;;;;;;27.60;19.20;;;13.60;63.20;;;;;;5033087;28;20037;-67
2021/03/29 02:38:49;;;;;;;28.38;19.40;;;13.50;63.60;;;;;;5032999;28;20017;-68
2021/03/29 02:41:16;;;;;;;24.40;18.65;;;13.50;63.90;;;;;;5032971;28;20601;-67
2021/03/29 02:43:45;;;;;;;24.05;18.75;;;13.40;63.90;;;;;;5033550;28;20383;-69
2021/03/29 02:46:11;;;;;;;27.33;19.77;;;13.40;64.00;;;;;;5033210;28;20382;-68
2021/03/29 02:48:39;;;;;;;27.63;19.98;;;13.50;64.00;;;;;;5033121;28;20021;-66
2021/03/29 02:51:09;;;;;;;27.33;19.10;;;13.40;63.90;;;;;;5031623;28;20026;-66
2021/03/29 02:53:36;;;;;;;24.50;19.55;;;13.40;64.20;;;;;;5033181;28;20017;-67
2021/03/29 02:56:08;;;;;;;24.20;18.83;;;13.40;64.10;;;;;;5032937;28;20030;-67
2021/03/29 02:58:38;;;;;;;28.13;19.83;;;13.40;64.20;;;;;;5033160;28;20040;-68
2021/03/29 03:01:07;;;;;;;25.65;19.15;;;13.40;63.90;;;;;;5031471;28;20018;-68
2021/03/29 03:03:33;;;;;;;25.65;19.25;;;13.40;63.90;;;;;;5033006;28;20029;-67
2021/03/29 03:05:59;;;;;;;23.45;19.63;;;13.50;63.70;;;;;;5033022;28;20026;-68
2021/03/29 03:08:25;;;;;;;25.27;19.73;;;13.40;63.70;;;;;;5032834;28;20104;-66
2021/03/29 03:10:51;;;;;;;30.95;21.35;;;13.40;63.80;;;;;;5032636;28;20051;-68
2021/03/29 03:13:17;;;;;;;24.13;19.95;;;13.30;64.10;;;;;;5032675;28;20092;-66
2021/03/29 03:15:45;;;;;;;30.48;19.23;;;13.30;64.40;;;;;;5031203;28;20050;-69
2021/03/29 03:18:10;;;;;;;25.58;19.45;;;13.30;64.10;;;;;;5033051;28;20056;-67
2021/03/29 03:20:38;;;;;;;25.98;19.73;;;13.30;64.30;;;;;;5032690;28;20463;-67
2021/03/29 03:23:08;;;;;;;26.92;19.60;;;13.30;64.10;;;;;;5032586;28;20083;-68
2021/03/29 03:25:36;;;;;;;25.42;19.48;;;13.40;64.40;;;;;;5032759;28;20037;-66
2021/03/29 03:28:07;;;;;;;28.90;20.05;;;13.40;63.60;;;;;;5032604;28;20394;-68
2021/03/29 03:31:01;;;;;;;27.73;20.48;;;13.40;63.70;;;;;;5032625;28;20413;-67
2021/03/29 03:33:29;;;;;;;30.93;20.77;;;13.40;64.40;;;;;;5029385;28;20033;-68
2021/03/29 03:35:55;;;;;;;26.83;20.10;;;13.30;63.70;;;;;;5033040;28;20163;-68
2021/03/29 03:38:25;;;;;;;28.02;20.15;;;13.20;63.90;;;;;;5032560;28;20036;-68
2021/03/29 03:40:56;;;;;;;28.83;20.98;;;13.20;63.70;;;;;;5034781;28;20426;-67
2021/03/29 03:43:25;;;;;;;28.77;19.98;;;13.20;63.80;;;;;;5036022;28;20108;-66
2021/03/29 03:45:58;;;;;;;27.02;20.33;;;13.20;63.90;;;;;;5036065;28;20024;-67
2021/03/29 03:48:25;;;;;;;27.98;19.50;;;13.20;63.80;;;;;;5036085;28;20037;-67
2021/03/29 03:50:51;;;;;;;27.02;19.77;;;13.20;63.60;;;;;;5035832;28;20072;-66
2021/03/29 03:53:20;;;;;;;24.67;19.02;;;13.00;63.70;;;;;;5035838;28;20075;-69
2021/03/29 03:55:52;;;;;;;28.27;20.48;;;13.00;64.00;;;;;;5034466;28;20463;-67
2021/03/29 03:58:18;;;;;;;26.98;18.88;;;13.00;63.90;;;;;;5035793;28;20033;-68
2021/03/29 04:00:44;;;;;;;25.77;17.80;;;12.90;64.10;;;;;;5035956;28;20371;-69
2021/03/29 04:03:10;;;;;;;26.42;18.02;;;12.80;64.20;;;;;;5035530;28;20021;-67
2021/03/29 04:05:36;;;;;;;27.17;18.05;;;12.80;64.30;;;;;;5035563;28;20041;-68
2021/03/29 04:08:02;;;;;;;23.95;17.02;;;12.70;64.40;;;;;;5035803;28;20026;-68
2021/03/29 04:13:10;;;;;;;23.52;17.50;;;12.80;65.00;;;;;;5035520;28;20029;-67
2021/03/29 04:15:36;;;;;;;22.55;18.00;;;12.90;64.30;;;;;;5035432;28;20352;-67
2021/03/29 04:18:01;;;;;;;25.05;17.15;;;12.90;63.90;;;;;;5035236;28;20044;-68
2021/03/29 04:20:27;;;;;;;26.67;17.80;;;12.90;64.10;;;;;;5035382;28;20049;-68
2021/03/29 04:22:53;;;;;;;26.40;17.90;;;12.90;64.10;;;;;;5035238;28;20030;-68
2021/03/29 04:25:18;;;;;;;20.33;16.98;;;12.90;63.90;;;;;;5035393;28;20430;-67
2021/03/29 04:27:44;;;;;;;26.27;17.65;;;12.80;63.80;;;;;;5035283;28;20037;-69
2021/03/29 04:30:12;;;;;;;24.20;17.35;;;12.80;64.50;;;;;;5034883;28;20029;-68
2021/03/29 04:32:39;;;;;;;25.55;17.45;;;12.70;64.30;;;;;;5035055;28;20025;-67
2021/03/29 04:35:06;;;;;;;23.65;17.05;;;12.80;64.40;;;;;;5035232;28;20409;-67
2021/03/29 04:37:32;;;;;;;24.40;17.55;;;12.80;64.40;;;;;;5034813;28;20061;-68
2021/03/29 04:39:58;;;;;;;20.13;16.73;;;12.80;63.90;;;;;;5034888;28;20056;-69
2021/03/29 04:42:24;;;;;;;25.38;17.00;;;12.60;64.00;;;;;;5034785;28;20535;-68
2021/03/29 04:44:49;;;;;;;22.45;17.10;;;12.70;64.50;;;;;;5033508;28;20128;-67
2021/03/29 04:47:15;;;;;;;24.98;16.65;;;12.70;64.50;;;;;;5034726;28;20072;-66
2021/03/29 04:49:41;;;;;;;24.38;17.42;;;12.70;64.10;;;;;;5034705;28;20079;-67
2021/03/29 04:52:08;;;;;;;21.98;15.68;;;12.70;64.10;;;;;;5034373;28;20390;-68
2021/03/29 04:54:34;;;;;;;26.23;15.98;;;12.70;64.10;;;;;;5034440;28;20018;-68
2021/03/29 04:57:00;;;;;;;25.58;16.83;;;12.60;63.80;;;;;;5034806;28;20564;-66
2021/03/29 04:59:26;;;;;;;29.15;16.83;;;12.60;64.20;;;;;;5034499;28;20045;-68
2021/03/29 05:01:52;;;;;;;34.33;16.45;;;12.60;64.10;;;;;;5034466;28;20075;-68
2021/03/29 05:04:17;;;;;;;21.60;15.52;;;12.70;64.00;;;;;;5034502;28;20420;-67
2021/03/29 05:06:43;;;;;;;20.23;15.18;;;12.60;64.00;;;;;;5034507;28;20516;-68
2021/03/29 05:09:09;;;;;;;22.80;16.70;;;12.70;64.00;;;;;;5033064;28;20037;-68
2021/03/29 05:11:55;;;;;;;22.98;16.73;;;12.60;64.00;;;;;;5034072;28;20021;-66
2021/03/29 05:14:21;;;;;;;19.40;15.00;;;12.60;63.90;;;;;;5033936;28;20128;-68
2021/03/29 05:16:47;;;;;;;23.55;15.95;;;12.60;63.70;;;;;;5033970;28;20148;-67
2021/03/29 05:19:13;;;;;;;21.30;15.15;;;12.70;63.60;;;;;;5034357;28;20028;-66
2021/03/29 05:21:40;;;;;;;24.13;15.73;;;12.80;63.40;;;;;;5034588;28;20040;-67
2021/03/29 05:24:06;;;;;;;22.85;15.48;;;12.80;63.10;;;;;;5034515;28;20485;-68
2021/03/29 05:26:32;;;;;;;25.15;16.15;;;12.90;63.40;;;;;;5034157;28;20037;-68
2021/03/29 05:28:58;;;;;;;23.15;16.90;;;12.90;62.90;;;;;;5034113;28;20021;-68
2021/03/29 05:31:24;;;;;;;24.55;16.17;;;13.00;63.10;;;;;;5033872;28;20061;-68
2021/03/29 05:33:50;;;;;;;22.30;15.48;;;13.00;62.60;;;;;;5033848;28;20021;-68
2021/03/29 05:36:16;;;;;;;24.75;15.05;;;12.90;62.70;;;;;;5033995;28;20083;-67
2021/03/29 05:38:43;;;;;;;25.75;14.95;;;12.90;62.80;;;;;;5033846;28;20087;-69
2021/03/29 05:41:14;;;;;;;24.77;16.55;;;12.90;62.70;;;;;;5033529;28;20057;-67
2021/03/29 05:43:41;;;;;;;23.35;16.02;;;12.90;62.30;;;;;;5033758;28;20051;-68
2021/03/29 05:46:07;;;;;;;23.95;16.05;;;12.90;62.70;;;;;;5033737;28;20033;-67
2021/03/29 05:48:35;;;;;;;27.58;17.45;;;13.00;62.90;;;;;;5033642;28;20528;-67
2021/03/29 05:51:03;;;;;;;27.08;16.17;;;13.10;62.40;;;;;;5033572;28;20022;-67
2021/03/29 05:53:29;;;;;;;23.63;15.75;;;13.10;62.30;;;;;;5033478;28;20045;-69
2021/03/29 05:55:55;;;;;;;23.98;16.45;;;13.20;62.10;;;;;;5033496;28;20101;-69
2021/03/29 06:00:52;;;;;;;23.50;15.48;;;13.10;61.90;;;;;;5033476;28;20501;-67
2021/03/29 06:03:40;;;;;;;23.67;15.35;;;13.20;61.90;;;;;;5033015;28;20390;-70
2021/03/29 06:06:12;;;;;;;22.63;15.48;;;13.30;61.80;;;;;;5033886;28;20405;-69
2021/03/29 06:08:46;;;;;;;29.25;15.95;;;13.30;61.70;;;;;;5033526;28;20112;-69
2021/03/29 06:11:28;;;;;;;21.75;15.65;;;13.40;61.40;;;;;;5031976;28;20029;-69
2021/03/29 06:14:12;;;;;;;25.25;14.90;;;13.40;61.80;;;;;;5033088;28;20025;-69
2021/03/29 06:16:57;;;;;;;23.77;15.10;;;13.50;61.30;;;;;;5032984;28;20095;-68
2021/03/29 06:20:00;;;;;;;20.48;13.75;;;13.70;61.40;;;;;;5033268;28;20075;-68
2021/03/29 06:22:33;;;;;;;29.73;14.35;;;13.80;60.70;;;;;;5021876;28;20386;-69
2021/03/29 06:25:07;;;;;;;20.25;13.65;;;13.90;60.60;;;;;;5032938;28;20036;-71
2021/03/29 06:27:47;;;;;;;21.45;15.10;;;14.10;60.30;;;;;;5033240;28;20036;-69
2021/03/29 06:30:23;;;;;;;20.92;15.10;;;14.20;60.00;;;;;;5032813;28;20022;-68
2021/03/29 06:33:17;;;;;;;24.33;14.25;;;14.20;60.20;;;;;;5033098;28;20029;-68
2021/03/29 06:35:55;;;;;;;34.17;14.90;;;14.30;59.90;;;;;;5033330;28;20051;-70
2021/03/29 06:38:35;;;;;;;19.38;14.50;;;14.40;59.80;;;;;;5032975;28;20108;-69
2021/03/29 06:41:02;;;;;;;17.50;12.93;;;14.40;59.80;;;;;;5031487;28;20026;-68
2021/03/29 06:43:36;;;;;;;22.88;13.57;;;14.40;60.10;;;;;;5032981;28;20022;-69
2021/03/29 06:46:18;;;;;;;17.52;13.38;;;14.30;60.30;;;;;;5033726;28;20025;-69
2021/03/29 06:48:44;;;;;;;19.92;13.73;;;14.30;60.10;;;;;;5033132;28;20108;-70
2021/03/29 06:51:15;;;;;;;21.98;14.20;;;14.40;60.00;;;;;;5032829;28;20462;-68
2021/03/29 06:53:47;;;;;;;21.60;14.30;;;14.50;60.10;;;;;;5033474;28;20033;-69
2021/03/29 06:56:32;;;;;;;25.25;15.48;;;14.70;60.00;;;;;;5032932;28;20445;-68
2021/03/29 06:59:16;;;;;;;23.08;15.55;;;14.90;59.10;;;;;;5032969;28;20478;-69
2021/03/29 07:01:54;;;;;;;32.65;15.05;;;15.00;59.00;;;;;;5031500;28;20490;-72
2021/03/29 07:04:26;;;;;;;21.15;14.35;;;15.00;58.70;;;;;;5033176;28;20357;-69
2021/03/29 07:06:56;;;;;;;22.75;14.23;;;15.00;58.30;;;;;;5033000;28;20052;-69
2021/03/29 07:09:23;;;;;;;22.40;14.25;;;15.10;58.20;;;;;;5032814;28;20022;-69
2021/03/29 07:11:49;;;;;;;22.98;13.43;;;15.10;57.90;;;;;;5032624;28;20032;-70
2021/03/29 07:14:21;;;;;;;23.38;13.57;;;15.20;57.80;;;;;;5032731;28;20096;-71
2021/03/29 07:16:47;;;;;;;19.17;13.35;;;15.30;57.40;;;;;;5036666;28;20470;-71
2021/03/29 07:19:13;;;;;;;17.75;12.27;;;15.30;57.00;;;;;;5036466;28;20113;-70
2021/03/29 07:21:39;;;;;;;16.92;11.43;;;15.40;56.80;;;;;;5036209;28;20108;-69
2021/03/29 07:24:10;;;;;;;17.75;11.07;;;15.60;56.50;;;;;;5036383;28;20360;-71
2021/03/29 07:26:56;;;;;;;19.40;11.10;;;15.60;56.20;;;;;;5036348;28;20461;-72
2021/03/29 07:29:25;;;;;;;16.42;11.85;;;15.70;55.90;;;;;;5036457;28;20025;-68
2021/03/29 07:31:55;;;;;;;18.52;11.73;;;15.70;55.80;;;;;;5036231;28;20033;-70
2021/03/29 07:34:52;;;;;;;16.98;11.73;;;15.70;55.30;;;;;;5036161;28;20124;-71
2021/03/29 07:37:40;;;;;;;19.25;11.35;;;15.80;54.80;;;;;;5036069;28;20038;-70
2021/03/29 07:40:18;;;;;;;15.57;10.50;;;15.80;54.90;;;;;;5036117;28;20022;-68
2021/03/29 07:42:45;;;;;;;19.50;11.43;;;15.80;54.90;;;;;;5036122;28;20471;-71
2021/03/29 07:45:15;;;;;;;14.70;10.73;;;15.80;54.30;;;;;;5035882;28;20032;-69
2021/03/29 07:47:50;;;;;;;21.30;11.32;;;15.90;54.70;;;;;;5035773;28;20028;-69
2021/03/29 07:50:38;;;;;;;15.15;9.85;;;16.10;53.90;;;;;;5035669;28;20113;-71
2021/03/29 07:53:06;;;;;;;15.50;8.88;;;16.10;53.70;;;;;;5034739;28;20375;-71
2021/03/29 07:55:44;;;;;;;16.65;8.27;;;16.20;53.00;;;;;;5035746;28;20116;-69
2021/03/29 07:58:13;;;;;;;14.77;8.13;;;16.20;52.00;;;;;;5035768;28;20105;-70
2021/03/29 08:00:40;;;;;;;13.77;8.57;;;16.20;52.00;;;;;;5035662;28;20048;-71
2021/03/29 08:03:12;;;;;;;17.42;8.55;;;16.30;52.10;;;;;;5034449;28;20116;-69
2021/03/29 08:05:38;;;;;;;16.55;8.70;;;16.40;52.50;;;;;;5035596;28;20029;-72
2021/03/29 08:08:35;;;;;;;15.68;8.23;;;16.50;52.40;;;;;;5035635;28;20121;-70
2021/03/29 08:11:14;;;;;;;15.77;8.38;;;16.40;51.10;;;;;;5035600;28;20033;-71
2021/03/29 08:13:56;;;;;;;14.00;8.65;;;16.40;51.80;;;;;;5035599;28;20025;-70
2021/03/29 08:16:24;;;;;;;13.07;8.70;;;16.40;52.00;;;;;;5035041;28;20060;-69
2021/03/29 08:19:25;;;;;;;16.60;9.65;;;16.30;52.00;;;;;;5034960;28;20053;-68
2021/03/29 08:22:14;;;;;;;14.48;9.80;;;16.30;52.00;;;;;;5034861;28;20097;-71
2021/03/29 08:24:46;;;;;;;10.90;8.15;;;16.40;52.10;;;;;;5035464;28;20045;-68
2021/03/29 08:27:14;;;;;;;14.18;9.50;;;16.30;51.90;;;;;;5035040;28;20363;-70
2021/03/29 08:29:44;;;;;;;12.35;7.78;;;16.30;51.70;;;;;;5035082;28;20055;-69
2021/03/29 08:32:31;;;;;;;13.35;8.07;;;16.30;51.40;;;;;;5033492;28;20475;-68
2021/03/29 08:35:01;;;;;;;14.55;8.02;;;16.30;51.10;;;;;;5035077;28;20148;-69
2021/03/29 08:37:36;;;;;;;18.13;9.38;;;16.20;51.20;;;;;;5034850;28;20505;-70
2021/03/29 08:40:14;;;;;;;13.68;8.18;;;16.20;51.80;;;;;;5034907;28;20021;-68
2021/03/29 08:42:43;;;;;;;14.73;8.25;;;16.20;51.40;;;;;;5035212;28;20022;-70
2021/03/29 08:45:11;;;;;;;15.07;8.65;;;16.30;51.80;;;;;;5034855;28;20501;-70
2021/03/29 08:47:39;;;;;;;13.48;7.82;;;16.30;51.80;;;;;;5034959;28;20506;-69
2021/03/29 08:50:09;;;;;;;10.32;7.22;;;16.40;51.70;;;;;;5033394;28;20028;-69
2021/03/29 08:53:06;;;;;;;16.02;7.07;;;16.40;51.00;;;;;;5033407;28;20599;-69
2021/03/29 08:55:37;;;;;;;9.77;6.25;;;16.50;51.00;;;;;;5032969;28;20514;-71
2021/03/29 08:58:04;;;;;;;9.80;6.20;;;16.60;50.90;;;;;;5034591;28;20408;-69
2021/03/29 09:00:36;;;;;;;10.75;7.05;;;16.60;50.50;;;;;;5034659;28;20053;-69
2021/03/29 09:03:02;;;;;;;22.23;13.43;;;16.70;50.40;;;;;;5034750;28;20033;-73
2021/03/29 09:05:28;;;;;;;16.35;9.75;;;16.70;50.40;;;;;;5034577;28;20018;-70
2021/03/29 09:07:54;;;;;;;16.40;9.68;;;16.80;50.40;;;;;;5034265;28;20025;-71
2021/03/29 09:10:31;;;;;;;12.40;6.75;;;16.80;50.20;;;;;;5034778;28;20026;-71
2021/03/29 09:13:06;;;;;;;12.73;6.57;;;16.80;49.90;;;;;;5034409;28;20029;-69
2021/03/29 09:15:36;;;;;;;12.88;6.70;;;16.90;50.00;;;;;;5034246;28;20045;-69
2021/03/29 09:18:08;;;;;;;16.60;7.93;;;16.90;50.10;;;;;;5034140;28;20486;-70
2021/03/29 09:20:48;;;;;;;13.40;5.95;;;17.00;48.80;;;;;;5034128;28;20473;-70
2021/03/29 09:23:17;;;;;;;10.65;6.10;;;17.10;49.70;;;;;;5033969;28;20028;-69
2021/03/29 09:25:46;;;;;;;10.05;5.85;;;17.10;49.00;;;;;;5034162;28;20017;-70
2021/03/29 09:30:56;;;;;;;13.02;6.07;;;17.30;47.60;;;;;;5033899;28;20033;-70
2021/03/29 09:33:23;;;;;;;12.32;6.22;;;17.30;48.40;;;;;;5034237;28;20414;-70
2021/03/29 09:35:50;;;;;;;13.15;6.15;;;17.40;48.30;;;;;;5032515;28;20108;-70
2021/03/29 09:38:31;;;;;;;12.18;5.65;;;17.50;48.60;;;;;;5033232;28;20021;-69
2021/03/29 09:40:57;;;;;;;11.10;5.53;;;17.60;48.00;;;;;;5032704;28;20485;-69
2021/03/29 09:43:23;;;;;;;12.27;5.63;;;17.60;48.10;;;;;;5033941;28;20053;-70
2021/03/29 09:45:48;;;;;;;10.70;5.75;;;17.70;47.90;;;;;;5033959;28;20025;-69
2021/03/29 09:48:14;;;;;;;8.55;4.75;;;17.70;47.20;;;;;;5033968;28;20057;-70
2021/03/29 09:50:50;;;;;;;11.60;6.47;;;17.80;46.90;;;;;;5033554;28;20026;-69
2021/03/29 09:53:23;;;;;;;12.45;6.72;;;17.80;47.40;;;;;;5032359;28;20424;-69
2021/03/29 09:55:57;;;;;;;10.52;6.65;;;17.90;47.60;;;;;;5032268;28;20026;-72
2021/03/29 09:58:30;;;;;;;16.38;6.45;;;18.00;46.70;;;;;;5033758;28;20036;-69
2021/03/29 10:01:02;;;;;;;14.30;6.75;;;18.10;47.50;;;;;;5033184;28;20104;-70
2021/03/29 10:03:29;;;;;;;12.32;5.95;;;18.20;47.30;;;;;;5032131;28;20075;-71
2021/03/29 10:05:55;;;;;;;14.18;6.63;;;18.30;47.30;;;;;;5033716;28;20347;-69
2021/03/29 10:08:30;;;;;;;13.30;7.55;;;18.30;46.90;;;;;;5033350;28;20037;-70
2021/03/29 10:11:07;;;;;;;10.82;5.85;;;18.40;47.10;;;;;;5033409;28;20439;-70
2021/03/29 10:13:38;;;;;;;14.13;6.07;;;18.40;46.90;;;;;;5033295;28;20064;-70
2021/03/29 10:16:16;;;;;;;12.88;6.05;;;18.50;47.00;;;;;;5031858;28;20482;-70
2021/03/29 10:18:42;;;;;;;12.35;5.80;;;18.70;46.90;;;;;;5033265;28;20112;-71
2021/03/29 10:21:08;;;;;;;19.45;7.70;;;18.80;46.40;;;;;;5033047;28;20537;-72
2021/03/29 10:23:33;;;;;;;14.68;7.10;;;18.90;47.10;;;;;;5033145;28;20433;-71
2021/03/29 10:26:12;;;;;;;15.40;6.82;;;19.00;47.10;;;;;;5033251;28;20028;-69
2021/03/29 10:28:39;;;;;;;13.32;6.25;;;19.10;47.20;;;;;;5031746;28;20057;-69
2021/03/29 10:31:05;;;;;;;17.08;6.90;;;19.20;47.30;;;;;;5031787;28;20025;-71
2021/03/29 10:33:31;;;;;;;10.45;6.07;;;19.20;47.50;;;;;;5033159;28;20018;-69
2021/03/29 10:35:56;;;;;;;11.38;5.20;;;19.30;46.80;;;;;;5033208;28;20036;-71
2021/03/29 10:38:22;;;;;;;10.05;4.57;;;19.30;46.60;;;;;;5031846;28;20029;-69
2021/03/29 10:40:48;;;;;;;10.80;4.93;;;19.40;47.00;;;;;;5033293;28;20061;-70
2021/03/29 10:43:14;;;;;;;11.02;4.47;;;19.50;45.50;;;;;;5033132;28;20033;-71
2021/03/29 10:45:40;;;;;;;7.63;4.55;;;19.60;44.80;;;;;;5032962;28;20069;-71
2021/03/29 10:48:06;;;;;;;11.43;4.15;;;19.70;44.40;;;;;;5033069;28;20021;-71
2021/03/29 10:50:32;;;;;;;9.38;4.55;;;19.80;44.60;;;;;;5036791;28;20087;-71
2021/03/29 10:53:07;;;;;;;9.82;4.63;;;19.90;44.50;;;;;;5037195;28;20386;-73
2021/03/29 10:55:33;;;;;;;8.05;4.20;;;20.00;44.00;;;;;;5037537;28;20030;-71
2021/03/29 10:57:59;;;;;;;12.82;4.40;;;20.10;43.60;;;;;;5036778;28;20114;-69
2021/03/29 11:00:25;;;;;;;8.25;4.78;;;20.20;43.00;;;;;;5036705;28;20025;-73
2021/03/29 11:02:52;;;;;;;9.40;4.78;;;20.20;43.20;;;;;;5036782;28;20036;-71
2021/03/29 11:05:18;;;;;;;11.68;5.28;;;20.20;43.20;;;;;;5036447;28;20385;-71
2021/03/29 11:07:43;;;;;;;9.10;5.28;;;20.40;43.40;;;;;;5036670;28;20108;-70
2021/03/29 11:10:10;;;;;;;16.55;6.07;;;20.40;43.50;;;;;;5036649;28;20033;-73
2021/03/29 11:12:36;;;;;;;14.25;6.10;;;20.50;42.90;;;;;;5036519;28;20032;-72
2021/03/29 11:15:03;;;;;;;14.40;6.53;;;20.60;43.20;;;;;;5036394;28;20049;-71
2021/03/29 11:17:29;;;;;;;13.75;6.75;;;20.60;43.80;;;;;;5035123;28;20033;-71
2021/03/29 11:19:55;;;;;;;12.27;7.25;;;20.60;44.10;;;;;;5036380;28;20071;-71
2021/03/29 11:22:21;;;;;;;13.80;7.30;;;20.80;44.60;;;;;;5036519;28;20049;-69
2021/03/29 11:24:46;;;;;;;19.20;7.15;;;20.80;44.40;;;;;;5036392;28;20030;-73
2021/03/29 11:27:12;;;;;;;13.82;7.32;;;20.80;44.30;;;;;;5036444;28;20096;-72
2021/03/29 11:29:38;;;;;;;15.38;7.63;;;20.90;44.90;;;;;;5036292;28;20096;-73
2021/03/29 11:32:04;;;;;;;17.15;8.48;;;21.00;44.80;;;;;;5036374;28;20462;-71
2021/03/29 11:34:30;;;;;;;14.32;8.73;;;21.10;45.30;;;;;;5036119;28;20540;-73
2021/03/29 11:36:56;;;;;;;14.75;8.32;;;21.10;46.50;;;;;;5036249;28;20034;-73
2021/03/29 11:39:21;;;;;;;16.45;7.82;;;21.20;47.10;;;;;;5036045;28;20382;-71
2021/03/29 11:41:47;;;;;;;17.52;8.13;;;21.30;47.30;;;;;;5035935;28;20509;-68
2021/03/29 11:44:13;;;;;;;15.05;7.57;;;21.30;47.30;;;;;;5036128;28;20481;-70
2021/03/29 11:46:39;;;;;;;15.40;7.43;;;21.40;47.60;;;;;;5036022;28;20025;-71
2021/03/29 11:49:05;;;;;;;15.90;7.13;;;21.40;47.50;;;;;;5036005;28;20048;-72
2021/03/29 11:51:32;;;;;;;15.02;7.10;;;21.50;47.70;;;;;;5036276;28;20116;-70
2021/03/29 11:53:57;;;;;;;12.15;5.90;;;21.50;48.00;;;;;;5035839;28;20029;-70
2021/03/29 11:56:23;;;;;;;12.98;5.72;;;21.60;47.60;;;;;;5035878;28;20021;-71
2021/03/29 11:58:51;;;;;;;11.30;6.15;;;21.70;47.60;;;;;;5036022;28;20107;-69
2021/03/29 12:02:06;;;;;;;11.35;5.75;;;21.70;47.50;;;;;;5034851;28;20025;-71
2021/03/29 12:06:53;;;;;;;13.50;5.88;;;21.90;47.20;;;;;;5035896;28;20128;-71
2021/03/29 12:14:14;;;;;;;10.70;4.97;;;22.00;45.80;;;;;;5035436;28;20029;-70
2021/03/29 12:16:43;;;;;;;15.23;5.70;;;22.00;46.20;;;;;;5035421;28;20083;-68
2021/03/29 12:19:10;;;;;;;11.25;4.72;;;22.00;46.00;;;;;;5035896;28;20033;-70
2021/03/29 12:21:38;;;;;;;11.00;4.95;;;21.90;46.30;;;;;;5035257;28;20478;-70
2021/03/29 12:24:11;;;;;;;10.48;4.75;;;22.00;46.40;;;;;;5035487;28;20061;-69
2021/03/29 12:26:36;;;;;;;13.93;5.63;;;22.00;46.80;;;;;;5035231;28;20030;-68
2021/03/29 12:29:08;;;;;;;10.50;5.47;;;22.00;46.30;;;;;;5035274;28;20026;-70
2021/03/29 12:31:35;;;;;;;10.07;4.47;;;22.00;46.50;;;;;;5035203;28;20025;-70
2021/03/29 12:34:02;;;;;;;14.07;6.32;;;21.90;46.90;;;;;;5035118;28;20347;-70
2021/03/29 12:36:33;;;;;;;15.25;9.27;;;21.90;47.10;;;;;;5035164;28;20034;-69
2021/03/29 12:39:13;;;;;;;11.77;5.20;;;21.90;47.10;;;;;;5035145;28;20105;-69
2021/03/29 12:41:45;;;;;;;15.77;5.15;;;22.00;47.50;;;;;;5035250;28;20096;-70
2021/03/29 12:44:18;;;;;;;14.93;5.07;;;22.10;47.40;;;;;;5034993;28;20115;-69
2021/03/29 12:46:49;;;;;;;11.20;4.35;;;22.10;47.30;;;;;;5034956;28;20017;-69
2021/03/29 12:49:16;;;;;;;12.85;4.35;;;22.10;47.40;;;;;;5034669;28;20034;-70
2021/03/29 12:51:43;;;;;;;15.70;4.95;;;22.00;47.10;;;;;;5034553;28;20056;-70
2021/03/29 12:54:20;;;;;;;15.00;4.82;;;22.10;47.50;;;;;;5034750;28;20028;-70
2021/03/29 12:56:46;;;;;;;7.95;3.97;;;22.10;47.50;;;;;;5034699;28;20414;-69
2021/03/29 12:59:11;;;;;;;9.00;4.30;;;22.20;47.30;;;;;;5034693;28;20029;-69